Time;durP1;ratioP1;P1;durP2;ratioP2;P2;SDS_P1;SDS_P2;PMS_P1;PMS_P2;Temp;Humidity;BMP_temperature;BMP_pressure;BME280_temperature;BME280_humidity;BME280_pressure;Samples;Min_cycle;Max_cycle;Signal;HPM_P1;HPM_P2
2023/04/06 00:01:07;;;;;;;0.20;0.20;;;;;;;2.17;70.24;96910.34;5049051;28;20639;-70
2023/04/06 00:03:34;;;;;;;0.20;0.20;;;;;;;2.18;70.12;96904.19;5035472;28;20203;-70
2023/04/06 00:06:00;;;;;;;0.20;0.20;;;;;;;2.20;69.42;96901.44;5035274;28;20194;-70
2023/04/06 00:08:26;;;;;;;0.13;0.13;;;;;;;2.23;68.65;96901.88;5053390;28;20185;-70
2023/04/06 00:10:51;;;;;;;0.10;0.10;;;;;;;2.26;68.36;96900.75;5054058;28;20181;-70
2023/04/06 00:13:17;;;;;;;0.20;0.20;;;;;;;2.26;68.01;96898.16;5045749;28;20246;-70
2023/04/06 00:15:42;;;;;;;0.20;0.20;;;;;;;2.30;66.94;96892.47;5034467;28;20643;-71
2023/04/06 00:18:08;;;;;;;0.20;0.20;;;;;;;2.31;66.86;96898.44;5051443;28;20189;-70
2023/04/06 00:20:33;;;;;;;0.20;0.20;;;;;;;2.33;67.09;96893.91;5052685;28;20181;-70
2023/04/06 00:22:58;;;;;;;0.17;0.17;;;;;;;2.32;66.51;96893.13;5041992;28;20194;-70
2023/04/06 00:25:25;;;;;;;0.20;0.20;;;;;;;2.39;65.58;96882.88;5054060;28;20196;-70
2023/04/06 00:27:50;;;;;;;0.20;0.20;;;;;;;2.44;64.62;96883.97;5053725;28;20273;-70
2023/04/06 00:30:16;;;;;;;0.13;0.13;;;;;;;2.60;64.05;96888.22;5034370;28;20274;-70
2023/04/06 00:32:41;;;;;;;0.10;0.10;;;;;;;2.67;63.96;96890.91;5033608;28;20183;-70
2023/04/06 00:35:07;;;;;;;0.20;0.20;;;;;;;2.61;63.51;96886.44;5042251;28;20193;-70
2023/04/06 00:37:32;;;;;;;0.20;0.20;;;;;;;2.62;63.40;96883.66;5040972;28;20190;-70
2023/04/06 00:39:58;;;;;;;0.10;0.10;;;;;;;2.64;62.80;96884.28;5049508;28;20189;-71
2023/04/06 00:42:27;;;;;;;0.20;0.20;;;;;;;2.69;62.68;96888.94;5053587;28;20647;-71
2023/04/06 00:44:59;;;;;;;0.17;0.17;;;;;;;2.71;63.14;96884.41;5043435;28;20181;-70
2023/04/06 00:47:25;;;;;;;0.10;0.10;;;;;;;2.67;63.24;96880.56;5052883;28;20182;-71
2023/04/06 00:49:52;;;;;;;0.20;0.20;;;;;;;2.69;62.24;96881.97;5053762;28;20185;-70
2023/04/06 00:52:17;;;;;;;0.20;0.20;;;;;;;2.61;62.83;96876.09;5051790;28;20225;-71
2023/04/06 00:54:43;;;;;;;0.10;0.10;;;;;;;2.61;63.37;96878.69;5035552;28;20672;-70
2023/04/06 00:57:09;;;;;;;0.10;0.10;;;;;;;2.62;63.47;96877.69;5050999;28;20265;-70
2023/04/06 00:59:35;;;;;;;0.20;0.20;;;;;;;2.65;62.96;96872.16;5053161;28;20198;-70
2023/04/06 01:02:00;;;;;;;0.20;0.20;;;;;;;2.55;63.54;96874.19;5038897;28;20253;-70
2023/04/06 01:04:27;;;;;;;0.20;0.20;;;;;;;2.61;64.23;96868.31;5033088;28;20198;-70
2023/04/06 01:06:52;;;;;;;0.20;0.20;;;;;;;2.49;65.09;96870.53;5032969;28;20187;-71
2023/04/06 01:09:18;;;;;;;0.17;0.17;;;;;;;2.40;64.70;96867.19;5033676;28;20210;-70
2023/04/06 01:11:43;;;;;;;0.10;0.10;;;;;;;2.28;66.10;96863.41;5033797;28;20190;-70
2023/04/06 01:14:09;;;;;;;0.10;0.10;;;;;;;2.29;66.19;96865.00;5033483;28;20213;-70
2023/04/06 01:16:35;;;;;;;0.13;0.13;;;;;;;2.29;66.08;96859.03;5033087;28;20199;-70
2023/04/06 01:19:01;;;;;;;0.20;0.20;;;;;;;2.19;67.11;96856.66;5033720;28;20194;-70
2023/04/06 01:21:27;;;;;;;0.17;0.17;;;;;;;2.18;66.25;96855.06;5032702;28;20332;-71
2023/04/06 01:23:52;;;;;;;0.10;0.10;;;;;;;2.24;66.38;96858.72;5032962;28;20273;-70
2023/04/06 01:26:18;;;;;;;0.20;0.20;;;;;;;2.10;66.38;96852.53;5033093;28;20273;-71
2023/04/06 01:28:44;;;;;;;0.20;0.20;;;;;;;2.09;66.57;96854.31;5032700;28;20189;-70
2023/04/06 01:31:10;;;;;;;0.20;0.20;;;;;;;2.03;66.91;96855.00;5033045;28;20182;-70
2023/04/06 01:33:36;;;;;;;0.20;0.20;;;;;;;2.00;67.28;96850.19;5032934;28;20237;-71
2023/04/06 01:36:02;;;;;;;0.20;0.20;;;;;;;2.03;66.35;96856.78;5032250;28;20197;-71
2023/04/06 01:38:27;;;;;;;0.20;0.20;;;;;;;2.01;66.38;96856.94;5032902;28;20190;-71
2023/04/06 01:40:53;;;;;;;0.10;0.10;;;;;;;1.95;66.82;96849.09;5032612;28;20186;-71
2023/04/06 01:43:19;;;;;;;0.20;0.20;;;;;;;1.96;66.77;96853.25;5025514;28;20284;-73
2023/04/06 01:45:44;;;;;;;0.20;0.20;;;;;;;2.04;66.59;96853.22;5013073;28;20332;-70
2023/04/06 01:48:10;;;;;;;0.20;0.20;;;;;;;1.95;67.50;96847.28;5023173;28;20659;-71
2023/04/06 01:50:36;;;;;;;0.20;0.20;;;;;;;1.86;67.88;96845.75;5032974;28;20182;-71
2023/04/06 01:53:01;;;;;;;0.10;0.10;;;;;;;1.89;68.03;96842.84;5014634;28;20249;-71
2023/04/06 01:55:26;;;;;;;0.20;0.20;;;;;;;1.93;67.49;96849.25;5026101;28;20255;-71
2023/04/06 01:57:52;;;;;;;0.10;0.10;;;;;;;1.85;68.25;96844.13;5032521;28;20187;-70
2023/04/06 02:00:17;;;;;;;0.10;0.10;;;;;;;1.87;67.53;96839.59;5014947;28;20274;-70
2023/04/06 02:02:42;;;;;;;0.20;0.20;;;;;;;1.85;67.82;96840.72;5031984;28;20222;-70
2023/04/06 02:05:08;;;;;;;0.10;0.10;;;;;;;1.81;68.25;96834.31;5032177;28;20182;-71
2023/04/06 02:07:34;;;;;;;0.10;0.10;;;;;;;1.79;67.95;96836.25;5032349;28;20210;-71
2023/04/06 02:09:59;;;;;;;0.10;0.10;;;;;;;1.81;67.73;96829.13;5033797;28;20185;-71
2023/04/06 02:12:25;;;;;;;0.10;0.10;;;;;;;1.81;67.24;96829.13;5036631;28;20194;-71
2023/04/06 02:14:51;;;;;;;0.20;0.20;;;;;;;1.82;67.15;96836.72;5035860;28;20202;-71
2023/04/06 02:17:16;;;;;;;0.13;0.13;;;;;;;1.86;67.32;96837.19;5036009;28;20273;-71
2023/04/06 02:19:41;;;;;;;0.20;0.20;;;;;;;1.86;66.44;96832.81;5035961;28;20182;-71
2023/04/06 02:22:07;;;;;;;0.10;0.10;;;;;;;1.89;66.01;96829.09;5035968;28;20193;-71
2023/04/06 02:24:32;;;;;;;0.17;0.17;;;;;;;1.92;65.95;96829.56;5036338;28;20228;-71
2023/04/06 02:26:58;;;;;;;0.10;0.10;;;;;;;1.98;64.95;96823.69;5035949;28;20226;-70
2023/04/06 02:29:24;;;;;;;0.10;0.10;;;;;;;1.99;65.47;96819.34;5017895;28;20186;-71
2023/04/06 02:31:49;;;;;;;0.10;0.10;;;;;;;1.94;65.36;96830.19;5034918;28;20174;-71
2023/04/06 02:34:17;;;;;;;0.20;0.20;;;;;;;1.96;66.23;96830.00;5035049;28;20289;-72
2023/04/06 02:36:46;;;;;;;0.20;0.20;;;;;;;1.93;66.10;96828.59;5034349;28;20202;-71
2023/04/06 02:39:12;;;;;;;0.20;0.20;;;;;;;1.87;67.02;96829.25;5035477;28;20207;-70
2023/04/06 02:41:38;;;;;;;0.10;0.10;;;;;;;1.75;66.61;96822.06;5035000;28;20270;-70
2023/04/06 02:44:03;;;;;;;0.10;0.10;;;;;;;1.75;66.64;96827.22;5031486;28;20704;-71
2023/04/06 02:46:29;;;;;;;0.20;0.20;;;;;;;1.71;66.48;96819.03;5034867;28;20190;-71
2023/04/06 02:48:54;;;;;;;0.10;0.10;;;;;;;1.74;67.23;96823.84;5035165;28;20266;-71
2023/04/06 02:51:20;;;;;;;0.20;0.20;;;;;;;1.61;67.89;96821.03;5031517;28;20179;-71
2023/04/06 02:53:46;;;;;;;0.20;0.20;;;;;;;1.67;68.12;96822.94;5034453;28;20202;-71
2023/04/06 02:56:11;;;;;;;0.20;0.20;;;;;;;1.61;67.77;96821.84;5034657;28;20182;-71
2023/04/06 02:58:36;;;;;;;0.10;0.10;;;;;;;1.55;68.94;96816.53;5017271;28;20691;-72
2023/04/06 03:01:02;;;;;;;0.10;0.10;;;;;;;1.60;68.54;96812.47;5034475;28;20564;-71
2023/04/06 03:03:28;;;;;;;0.20;0.20;;;;;;;1.51;68.57;96816.06;5036103;28;20262;-71
2023/04/06 03:05:54;;;;;;;0.20;0.20;;;;;;;1.50;68.55;96824.78;5035342;28;20179;-71
2023/04/06 03:08:20;;;;;;;0.20;0.20;;;;;;;1.65;67.99;96819.72;5035581;28;20281;-71
2023/04/06 03:10:45;;;;;;;0.10;0.10;;;;;;;1.65;68.25;96817.13;5035822;28;20270;-70
2023/04/06 03:13:10;;;;;;;0.10;0.10;;;;;;;1.62;68.75;96820.03;5035768;28;20202;-71
2023/04/06 03:15:36;;;;;;;0.20;0.20;;;;;;;1.57;68.88;96819.72;5035316;28;20182;-70
2023/04/06 03:18:01;;;;;;;0.20;0.20;;;;;;;1.60;68.57;96811.66;5035154;28;20262;-71
2023/04/06 03:20:27;;;;;;;0.20;0.20;;;;;;;1.52;69.02;96812.50;5034937;28;20654;-71
2023/04/06 03:22:52;;;;;;;0.20;0.20;;;;;;;1.51;69.31;96807.50;5035077;28;20669;-71
2023/04/06 03:25:17;;;;;;;0.10;0.10;;;;;;;1.43;70.34;96817.88;5035796;28;20182;-71
2023/04/06 03:27:43;;;;;;;0.20;0.20;;;;;;;1.49;69.98;96806.88;5035333;28;20297;-71
2023/04/06 03:30:09;;;;;;;0.20;0.20;;;;;;;1.45;70.10;96813.38;5034356;28;20202;-71
2023/04/06 03:32:34;;;;;;;0.20;0.20;;;;;;;1.51;68.98;96812.66;5035444;28;20179;-71
2023/04/06 03:35:00;;;;;;;0.20;0.20;;;;;;;1.55;69.14;96817.34;5035105;28;20214;-71
2023/04/06 03:37:25;;;;;;;0.20;0.20;;;;;;;1.47;69.46;96819.16;5034892;28;20182;-70
2023/04/06 03:39:51;;;;;;;0.13;0.13;;;;;;;1.53;68.98;96815.88;5034654;28;20195;-71
2023/04/06 03:42:17;;;;;;;0.20;0.20;;;;;;;1.45;69.42;96824.47;5017242;28;20193;-71
2023/04/06 03:44:42;;;;;;;0.20;0.20;;;;;;;1.50;69.19;96821.41;5023919;28;20276;-71
2023/04/06 03:47:07;;;;;;;0.20;0.20;;;;;;;1.57;69.24;96820.53;5035003;28;20179;-71
2023/04/06 03:49:33;;;;;;;0.13;0.13;;;;;;;1.56;68.40;96818.94;5035076;28;20190;-71
2023/04/06 03:51:58;;;;;;;0.20;0.20;;;;;;;1.53;68.30;96826.22;5034555;28;20232;-71
2023/04/06 03:54:24;;;;;;;0.20;0.20;;;;;;;1.54;68.41;96827.84;5034854;28;20217;-70
2023/04/06 03:56:49;;;;;;;0.20;0.20;;;;;;;1.57;67.68;96830.88;5031408;28;20183;-70
2023/04/06 03:59:15;;;;;;;0.20;0.20;;;;;;;1.56;67.98;96829.25;5034665;28;20277;-71
2023/04/06 04:01:40;;;;;;;0.10;0.10;;;;;;;1.60;68.62;96838.31;5033497;28;20375;-70
2023/04/06 04:04:05;;;;;;;0.20;0.20;;;;;;;1.45;68.43;96831.44;5034303;28;20245;-70
2023/04/06 04:06:31;;;;;;;0.20;0.20;;;;;;;1.57;68.42;96830.06;5034151;28;20187;-71
2023/04/06 04:08:56;;;;;;;0.20;0.20;;;;;;;1.49;68.92;96841.25;5034554;28;20537;-71
2023/04/06 04:11:21;;;;;;;0.20;0.20;;;;;;;1.21;72.32;96840.88;5034553;28;20187;-71
2023/04/06 04:13:47;;;;;;;0.20;0.20;;;;;;;0.96;74.19;96838.53;5034190;28;20198;-71
2023/04/06 04:16:12;;;;;;;0.30;0.30;;;;;;;0.95;74.52;96839.53;5034371;28;20241;-71
2023/04/06 04:18:37;;;;;;;0.20;0.20;;;;;;;1.03;73.47;96837.72;5016244;28;20572;-71
2023/04/06 04:21:03;;;;;;;0.20;0.20;;;;;;;1.11;71.34;96844.63;5016394;28;20196;-71
2023/04/06 04:23:28;;;;;;;0.20;0.20;;;;;;;1.17;71.21;96841.38;5034102;28;20658;-71
2023/04/06 04:25:54;;;;;;;0.20;0.20;;;;;;;1.28;70.43;96845.38;5034608;28;20536;-71
2023/04/06 04:28:20;;;;;;;0.20;0.20;;;;;;;1.29;70.11;96849.56;5033822;28;20574;-71
2023/04/06 04:30:46;;;;;;;0.20;0.20;;;;;;;1.31;69.39;96845.03;5034047;28;20182;-71
2023/04/06 04:33:11;;;;;;;0.20;0.20;;;;;;;1.31;69.49;96845.03;5032939;28;20289;-71
2023/04/06 04:35:36;;;;;;;0.20;0.20;;;;;;;1.28;69.25;96845.38;5033920;28;20258;-71
2023/04/06 04:38:02;;;;;;;0.10;0.10;;;;;;;1.32;69.05;96846.66;5034243;28;20664;-71
2023/04/06 04:40:27;;;;;;;0.20;0.20;;;;;;;1.34;69.38;96842.91;5032925;28;20194;-71
2023/04/06 04:42:52;;;;;;;0.20;0.20;;;;;;;1.40;68.95;96841.44;5027095;28;20188;-71
2023/04/06 04:45:18;;;;;;;0.20;0.20;;;;;;;1.40;69.32;96844.03;5032306;28;20183;-71
2023/04/06 04:47:43;;;;;;;0.10;0.10;;;;;;;1.34;68.67;96847.31;5016004;28;20187;-72
2023/04/06 04:50:09;;;;;;;0.20;0.20;;;;;;;1.41;68.97;96843.88;5033585;28;20190;-72
2023/04/06 04:52:35;;;;;;;0.20;0.20;;;;;;;1.42;68.76;96849.84;5033633;28;20278;-71
2023/04/06 04:55:01;;;;;;;0.20;0.20;;;;;;;1.40;68.95;96847.41;5033403;28;20659;-72
2023/04/06 04:57:27;;;;;;;0.20;0.20;;;;;;;1.36;69.52;96851.31;5014124;28;20193;-71
2023/04/06 04:59:52;;;;;;;0.20;0.20;;;;;;;1.36;68.85;96845.34;5033053;28;20542;-72
2023/04/06 05:02:17;;;;;;;0.20;0.20;;;;;;;1.55;68.97;96850.91;5015224;28;20246;-71
2023/04/06 05:04:43;;;;;;;0.20;0.20;;;;;;;1.54;68.61;96851.06;5033271;28;20654;-72
2023/04/06 05:07:09;;;;;;;0.20;0.20;;;;;;;1.60;68.67;96845.25;5015251;28;20627;-73
2023/04/06 05:09:34;;;;;;;0.20;0.20;;;;;;;1.61;68.35;96845.09;5013492;28;20647;-72
2023/04/06 05:12:00;;;;;;;0.20;0.20;;;;;;;1.81;68.19;96848.03;5014571;28;20329;-72
2023/04/06 05:14:29;;;;;;;0.20;0.20;;;;;;;1.88;68.26;96853.31;5013537;28;20199;-72
2023/04/06 05:16:55;;;;;;;0.20;0.20;;;;;;;2.04;66.56;96854.03;5029963;28;20277;-72
2023/04/06 05:19:20;;;;;;;0.20;0.20;;;;;;;2.13;66.84;96857.34;5015106;28;20214;-72
2023/04/06 05:21:46;;;;;;;0.20;0.20;;;;;;;2.29;66.03;96859.81;5020681;28;20186;-72
2023/04/06 05:24:11;;;;;;;0.17;0.17;;;;;;;2.38;65.93;96858.00;5032658;28;20226;-73
2023/04/06 05:26:37;;;;;;;0.20;0.20;;;;;;;2.66;65.42;96863.44;5023152;28;20640;-73
2023/04/06 05:29:02;;;;;;;0.20;0.20;;;;;;;2.71;63.88;96867.09;5033008;28;20191;-72
2023/04/06 05:31:29;;;;;;;0.20;0.20;;;;;;;2.74;63.88;96866.75;5032965;28;20244;-71
2023/04/06 05:33:55;;;;;;;0.10;0.10;;;;;;;2.96;62.80;96874.63;5026137;28;20215;-73
2023/04/06 05:36:20;;;;;;;0.10;0.10;;;;;;;3.04;62.57;96874.56;5025076;28;20190;-72
2023/04/06 05:38:46;;;;;;;0.20;0.20;;;;;;;2.95;62.54;96875.63;5033277;28;20624;-72
2023/04/06 05:41:11;;;;;;;0.10;0.10;;;;;;;3.14;62.34;96883.66;5032038;28;20205;-71
2023/04/06 05:43:36;;;;;;;0.10;0.10;;;;;;;3.22;62.51;96880.22;5018422;28;20531;-71
2023/04/06 05:46:03;;;;;;;0.10;0.10;;;;;;;3.42;61.40;96875.28;5014725;28;20194;-71
2023/04/06 05:48:28;;;;;;;0.10;0.10;;;;;;;3.58;60.86;96875.91;5012269;28;20182;-72
2023/04/06 05:50:54;;;;;;;0.20;0.20;;;;;;;3.63;61.34;96873.56;5018620;28;20522;-71
2023/04/06 05:53:20;;;;;;;0.10;0.10;;;;;;;3.92;60.68;96877.91;5032753;28;20260;-71
2023/04/06 05:55:46;;;;;;;0.10;0.10;;;;;;;4.15;59.32;96881.16;5020058;28;20198;-71
2023/04/06 05:58:12;;;;;;;0.20;0.20;;;;;;;4.15;59.54;96878.56;5029627;28;20539;-71
2023/04/06 06:00:37;;;;;;;0.10;0.10;;;;;;;4.54;58.53;96878.13;5032127;28;20658;-71
2023/04/06 06:03:05;;;;;;;0.10;0.10;;;;;;;4.65;58.13;96884.63;5024787;28;20601;-71
2023/04/06 06:05:31;;;;;;;0.10;0.10;;;;;;;4.70;57.70;96882.25;5013124;28;20663;-71
2023/04/06 06:07:56;;;;;;;0.20;0.20;;;;;;;4.70;57.74;96882.25;5012778;28;20195;-72
2023/04/06 06:10:22;;;;;;;0.10;0.10;;;;;;;4.84;57.95;96883.19;5027495;28;20191;-72
2023/04/06 06:12:48;;;;;;;0.10;0.10;;;;;;;4.82;58.31;96885.97;5012928;28;20246;-72
2023/04/06 06:15:14;;;;;;;0.10;0.10;;;;;;;4.88;58.80;96887.81;5021919;28;20210;-72
2023/04/06 06:17:39;;;;;;;0.10;0.10;;;;;;;4.80;59.13;96889.72;5014496;28;20190;-72
2023/04/06 06:20:08;;;;;;;0.10;0.10;;;;;;;5.08;58.97;96898.31;5032466;28;20252;-72
2023/04/06 06:22:34;;;;;;;0.20;0.20;;;;;;;5.08;59.29;96889.72;4997092;28;20183;-72
2023/04/06 06:24:59;;;;;;;0.07;0.07;;;;;;;5.28;58.52;96893.28;5020192;28;20189;-72
2023/04/06 06:27:25;;;;;;;0.10;0.10;;;;;;;5.23;58.60;96887.84;5032151;28;20183;-72
2023/04/06 06:29:50;;;;;;;0.10;0.10;;;;;;;5.34;58.23;96890.72;5018247;28;20215;-72
2023/04/06 06:32:16;;;;;;;0.10;0.10;;;;;;;5.39;59.39;96890.16;5012931;28;20251;-72
2023/04/06 06:34:41;;;;;;;0.10;0.10;;;;;;;5.43;59.74;96896.56;5024892;28;20199;-72
2023/04/06 06:37:07;;;;;;;0.10;0.10;;;;;;;5.46;58.98;96890.19;5012585;28;20187;-72
2023/04/06 06:39:32;;;;;;;0.10;0.10;;;;;;;5.41;59.78;96890.75;5020028;28;20175;-72
2023/04/06 06:42:00;;;;;;;0.10;0.10;;;;;;;5.67;58.83;96893.50;5026146;28;20267;-72
2023/04/06 06:44:26;;;;;;;0.10;0.10;;;;;;;5.89;59.12;96896.03;5015209;28;20190;-72
2023/04/06 06:46:51;;;;;;;0.10;0.10;;;;;;;5.95;57.80;96898.66;5028336;28;20519;-72
2023/04/06 06:49:17;;;;;;;0.10;0.10;;;;;;;6.05;58.17;96893.88;5013731;28;20187;-72
2023/04/06 06:51:42;;;;;;;0.10;0.10;;;;;;;6.07;58.29;96902.31;5012296;28;20180;-72
2023/04/06 06:54:07;;;;;;;0.10;0.10;;;;;;;5.89;58.31;96903.81;5012407;28;20242;-72
2023/04/06 06:56:35;;;;;;;0.17;0.17;;;;;;;5.89;57.84;96899.44;5025426;28;20197;-72
2023/04/06 06:59:01;;;;;;;0.10;0.10;;;;;;;6.93;90.41;96897.22;5024633;28;20289;-71
2023/04/06 07:01:26;;;;;;;0.10;0.10;;;;;;;7.18;62.33;96898.22;5023662;28;20650;-71
2023/04/06 07:03:51;;;;;;;0.10;0.10;;;;;;;6.78;60.11;96899.22;5036525;28;20194;-72
2023/04/06 07:06:17;;;;;;;0.10;0.10;;;;;;;6.51;60.37;96904.41;5035111;28;20277;-71
2023/04/06 07:08:42;;;;;;;0.10;0.10;;;;;;;6.26;60.94;96904.16;5040919;28;20178;-72
2023/04/06 07:11:07;;;;;;;0.10;0.10;;;;;;;6.22;61.40;96908.16;5036624;28;20626;-71
2023/04/06 07:13:33;;;;;;;0.10;0.10;;;;;;;6.25;60.85;96906.94;5052401;28;20229;-71
2023/04/06 07:15:58;;;;;;;0.10;0.10;;;;;;;6.50;59.93;96908.03;5046279;28;20270;-72
2023/04/06 07:18:24;;;;;;;0.10;0.10;;;;;;;6.48;58.84;96909.19;5046925;28;20186;-71
2023/04/06 07:20:50;;;;;;;0.30;0.10;;;;;;;6.55;59.34;96903.03;5036429;28;20187;-72
2023/04/06 07:23:15;;;;;;;0.10;0.10;;;;;;;6.67;58.19;96913.66;5040581;28;20228;-71
2023/04/06 07:25:41;;;;;;;0.10;0.10;;;;;;;6.95;58.56;96905.66;5033115;28;20205;-72
2023/04/06 07:28:06;;;;;;;0.10;0.10;;;;;;;6.93;59.47;96905.03;5034013;28;20182;-71
2023/04/06 07:30:32;;;;;;;0.10;0.10;;;;;;;6.75;60.30;96907.44;5034456;28;20702;-71
2023/04/06 07:32:58;;;;;;;0.10;0.10;;;;;;;6.69;61.36;96919.44;5033845;28;20183;-71
2023/04/06 07:35:26;;;;;;;0.10;0.10;;;;;;;6.63;61.28;96909.84;5034933;28;20228;-71
2023/04/06 07:37:51;;;;;;;0.10;0.10;;;;;;;6.71;61.40;96909.66;5035637;28;20209;-72
2023/04/06 07:40:17;;;;;;;0.10;0.10;;;;;;;6.74;60.90;96916.28;5036030;28;20593;-71
2023/04/06 07:42:43;;;;;;;0.10;0.10;;;;;;;6.79;61.25;96921.69;5033610;28;20182;-71
2023/04/06 07:45:09;;;;;;;0.10;0.10;;;;;;;6.87;60.83;96918.88;5044994;28;20647;-71
2023/04/06 07:47:35;;;;;;;0.10;0.10;;;;;;;6.97;60.53;96911.44;5023814;28;20175;-71
2023/04/06 07:50:00;;;;;;;0.10;0.10;;;;;;;7.23;59.82;96914.06;5034802;28;20278;-71
2023/04/06 07:52:26;;;;;;;0.00;0.00;;;;;;;7.45;58.36;96906.81;5034502;28;20244;-71
2023/04/06 07:54:51;;;;;;;0.10;0.10;;;;;;;7.28;58.49;96909.03;5046752;28;20210;-71
2023/04/06 07:57:17;;;;;;;0.10;0.10;;;;;;;7.57;57.76;96909.59;5042507;28;20309;-71
2023/04/06 07:59:42;;;;;;;0.10;0.10;;;;;;;7.67;57.55;96909.97;5048501;28;20275;-72
2023/04/06 08:02:07;;;;;;;0.10;0.10;;;;;;;7.63;56.61;96922.63;5035942;28;20230;-71
2023/04/06 08:04:33;;;;;;;0.00;0.00;;;;;;;7.74;56.05;96911.56;5042471;28;20271;-72
2023/04/06 08:06:58;;;;;;;0.10;0.10;;;;;;;7.72;56.98;96912.75;5043077;28;20193;-72
2023/04/06 08:09:24;;;;;;;0.10;0.10;;;;;;;7.91;55.24;96911.91;5052050;28;20193;-71
2023/04/06 08:11:49;;;;;;;0.00;0.00;;;;;;;7.85;54.92;96913.53;5050696;28;20902;-71
2023/04/06 08:14:15;;;;;;;0.10;0.10;;;;;;;8.03;53.49;96920.69;5035550;28;20578;-71
2023/04/06 08:16:41;;;;;;;0.10;0.10;;;;;;;8.03;53.17;96925.91;5037931;28;20650;-71
2023/04/06 08:19:09;;;;;;;0.10;0.10;;;;;;;8.07;52.90;96919.28;5054050;28;20190;-71
2023/04/06 08:21:35;;;;;;;0.10;0.10;;;;;;;8.03;52.82;96925.09;5036794;28;20183;-72
2023/04/06 08:24:01;;;;;;;0.10;0.10;;;;;;;8.26;52.09;96920.19;5035919;28;20529;-71
2023/04/06 08:26:26;;;;;;;0.10;0.10;;;;;;;8.44;51.89;96917.72;5053814;28;20185;-70
2023/04/06 08:28:52;;;;;;;0.10;0.10;;;;;;;8.65;50.94;96921.81;5053405;28;20190;-70
2023/04/06 08:31:17;;;;;;;0.10;0.10;;;;;;;8.72;51.04;96917.34;5053497;28;20260;-70
2023/04/06 08:33:43;;;;;;;0.10;0.10;;;;;;;8.84;50.53;96913.03;5039709;28;20214;-71
2023/04/06 08:36:10;;;;;;;0.07;0.07;;;;;;;8.78;49.78;96924.34;5050916;28;20217;-71
2023/04/06 08:38:35;;;;;;;0.07;0.07;;;;;;;8.77;49.88;96920.91;5024154;28;20178;-70
2023/04/06 08:41:12;;;;;;;0.00;0.00;;;;;;;8.82;49.47;96920.28;5033638;28;20244;-71
2023/04/06 08:43:49;;;;;;;0.10;0.10;;;;;;;9.06;49.53;96921.31;5044768;28;20239;-70
2023/04/06 08:46:15;;;;;;;0.10;0.10;;;;;;;9.10;48.52;96918.06;5034932;28;20212;-71
2023/04/06 08:48:42;;;;;;;0.10;0.10;;;;;;;9.13;50.68;96919.47;5038070;28;20251;-71
2023/04/06 08:51:09;;;;;;;0.10;0.10;;;;;;;9.03;49.97;96911.28;5043741;28;20265;-70
2023/04/06 08:53:35;;;;;;;0.10;0.10;;;;;;;9.00;50.57;96911.72;5048690;28;20205;-70
2023/04/06 08:56:03;;;;;;;0.10;0.10;;;;;;;8.54;49.44;96917.25;5040553;28;20188;-70
2023/04/06 08:58:34;;;;;;;0.10;0.10;;;;;;;8.52;48.22;96917.47;5036522;28;20209;-70
2023/04/06 09:01:02;;;;;;;0.10;0.10;;;;;;;9.05;48.02;96915.28;5050300;28;20578;-70
2023/04/06 09:03:31;;;;;;;0.10;0.10;;;;;;;8.96;48.25;96900.88;5036502;28;20242;-70
2023/04/06 09:05:56;;;;;;;0.10;0.10;;;;;;;9.04;49.70;96905.84;5051125;28;20694;-71
2023/04/06 09:08:22;;;;;;;0.10;0.10;;;;;;;9.14;48.35;96898.31;5051835;28;20270;-71
2023/04/06 09:10:48;;;;;;;0.10;0.10;;;;;;;9.41;47.73;96901.50;5036113;28;20183;-70
2023/04/06 09:13:14;;;;;;;0.10;0.10;;;;;;;8.52;49.03;96907.03;5052402;28;20178;-70
2023/04/06 09:15:39;;;;;;;0.10;0.10;;;;;;;8.61;50.12;96902.34;5040198;28;20194;-70
2023/04/06 09:18:05;;;;;;;0.10;0.10;;;;;;;8.99;47.48;96899.66;5015369;28;20182;-70
2023/04/06 09:20:31;;;;;;;0.10;0.10;;;;;;;9.20;46.33;96899.25;5048132;28;20661;-70
2023/04/06 09:22:56;;;;;;;0.10;0.10;;;;;;;8.86;47.60;96902.38;5052782;28;20194;-70
2023/04/06 09:25:23;;;;;;;0.00;0.00;;;;;;;9.09;47.78;96899.97;5046750;28;20214;-70
2023/04/06 09:27:57;;;;;;;0.10;0.10;;;;;;;8.92;46.76;96898.88;5048398;28;20178;-70
2023/04/06 09:30:24;;;;;;;0.10;0.10;;;;;;;9.12;46.66;96907.41;5015510;28;20654;-70
2023/04/06 09:32:55;;;;;;;0.10;0.10;;;;;;;8.99;46.25;96899.66;5044143;28;20182;-70
2023/04/06 09:35:21;;;;;;;0.10;0.10;;;;;;;9.19;45.88;96897.69;5043055;28;20209;-70
2023/04/06 09:37:48;;;;;;;0.00;0.00;;;;;;;8.47;44.99;96906.84;5050579;28;20284;-70
2023/04/06 09:40:14;;;;;;;0.10;0.10;;;;;;;8.21;48.27;96899.91;5049345;28;20197;-69
2023/04/06 09:42:46;;;;;;;0.10;0.10;;;;;;;8.04;49.76;96906.63;5032966;28;20178;-70
2023/04/06 09:45:12;;;;;;;0.10;0.10;;;;;;;8.14;48.46;96899.16;5015551;28;20182;-70
2023/04/06 09:47:40;;;;;;;0.10;0.10;;;;;;;8.31;49.20;96896.88;5032466;28;20179;-70
2023/04/06 09:50:08;;;;;;;0.10;0.10;;;;;;;8.59;46.92;96893.91;5032715;28;20328;-70
2023/04/06 09:52:38;;;;;;;0.07;0.07;;;;;;;8.95;44.79;96893.25;5036388;28;20537;-70
2023/04/06 09:55:05;;;;;;;0.10;0.10;;;;;;;9.34;43.17;96892.09;5035927;28;20206;-70
2023/04/06 09:57:32;;;;;;;0.10;0.10;;;;;;;9.40;40.53;96891.25;5028439;28;20186;-70
2023/04/06 10:00:09;;;;;;;0.10;0.10;;;;;;;9.41;40.59;96890.25;5046047;28;20254;-71
2023/04/06 10:02:53;;;;;;;0.10;0.10;;;;;;;9.62;40.47;96896.88;5040908;28;20304;-71
2023/04/06 10:05:50;;;;;;;0.10;0.10;;;;;;;9.53;41.56;96894.53;5050321;28;20264;-70
2023/04/06 10:08:16;;;;;;;0.00;0.00;;;;;;;9.25;39.05;96896.03;5041571;28;20175;-70
2023/04/06 10:10:42;;;;;;;0.10;0.10;;;;;;;9.08;37.04;96896.53;5032511;28;20230;-71
2023/04/06 10:13:10;;;;;;;0.10;0.10;;;;;;;9.27;37.49;96897.41;5032377;28;20197;-71
2023/04/06 10:15:38;;;;;;;0.10;0.10;;;;;;;9.41;37.55;96892.84;5043289;28;20253;-70
2023/04/06 10:18:04;;;;;;;0.00;0.00;;;;;;;9.59;39.06;96892.84;5046280;28;20194;-71
2023/04/06 10:20:42;;;;;;;0.10;0.10;;;;;;;9.28;39.36;96888.53;5032861;28;20543;-70
2023/04/06 10:23:14;;;;;;;0.00;0.00;;;;;;;9.27;39.23;96886.13;5032530;28;20265;-72
2023/04/06 10:25:39;;;;;;;0.00;0.00;;;;;;;8.75;40.55;96885.53;5048275;28;20224;-71
2023/04/06 10:28:06;;;;;;;0.10;0.10;;;;;;;8.62;40.85;96877.81;5052074;28;20642;-70
2023/04/06 10:30:42;;;;;;;0.00;0.00;;;;;;;8.90;40.39;96880.81;5052063;28;20698;-71
2023/04/06 10:33:18;;;;;;;0.00;0.00;;;;;;;9.30;38.97;96886.53;5055857;28;20269;-71
2023/04/06 10:35:43;;;;;;;0.10;0.10;;;;;;;9.65;36.91;96888.56;5023152;28;20185;-71
2023/04/06 10:38:09;;;;;;;0.10;0.10;;;;;;;9.82;37.12;96882.53;5039583;28;20177;-70
2023/04/06 10:40:39;;;;;;;0.10;0.10;;;;;;;9.78;37.32;96881.38;5041882;28;20186;-70
2023/04/06 10:43:10;;;;;;;0.10;0.10;;;;;;;9.60;36.79;96876.13;5017835;28;20207;-70
2023/04/06 10:45:36;;;;;;;0.10;0.10;;;;;;;9.65;36.97;96875.47;5051817;28;20356;-71
2023/04/06 10:48:15;;;;;;;0.00;0.00;;;;;;;9.88;36.65;96873.00;5054893;28;20256;-70
2023/04/06 10:50:46;;;;;;;0.10;0.10;;;;;;;9.98;36.57;96862.81;5039359;28;20257;-70
2023/04/06 10:53:20;;;;;;;0.07;0.07;;;;;;;10.12;35.88;96866.06;5036034;28;20243;-70
2023/04/06 10:55:47;;;;;;;0.00;0.00;;;;;;;10.16;35.58;96859.34;5049246;28;20189;-70
2023/04/06 10:58:12;;;;;;;0.10;0.10;;;;;;;10.33;35.41;96865.59;5053691;28;20189;-70
2023/04/06 11:00:45;;;;;;;0.10;0.10;;;;;;;10.43;35.45;96877.16;5028618;28;20182;-71
2023/04/06 11:03:10;;;;;;;0.10;0.10;;;;;;;10.39;35.40;96869.97;5040403;28;20226;-70
2023/04/06 11:05:35;;;;;;;0.00;0.00;;;;;;;10.34;35.82;96868.00;5049157;28;20243;-70
2023/04/06 11:08:01;;;;;;;0.10;0.10;;;;;;;10.45;35.31;96863.03;5048047;28;20186;-69
2023/04/06 11:10:26;;;;;;;0.10;0.10;;;;;;;10.18;34.77;96866.03;5045341;28;20270;-69
2023/04/06 11:12:55;;;;;;;0.10;0.10;;;;;;;9.96;35.79;96863.06;5047506;28;20524;-69
2023/04/06 11:15:21;;;;;;;0.03;0.03;;;;;;;10.37;35.59;96866.75;5054986;28;20198;-70
2023/04/06 11:17:46;;;;;;;0.10;0.10;;;;;;;10.43;35.04;96863.25;5054224;28;20182;-71
2023/04/06 11:20:12;;;;;;;0.10;0.10;;;;;;;9.69;34.92;96859.16;5031819;28;20182;-70
2023/04/06 11:22:48;;;;;;;0.00;0.00;;;;;;;9.89;36.02;96854.47;5054664;28;20256;-70
2023/04/06 11:25:14;;;;;;;0.10;0.10;;;;;;;10.37;35.37;96857.06;5042300;28;20555;-70
2023/04/06 11:27:40;;;;;;;0.10;0.10;;;;;;;10.61;34.76;96846.66;5037534;28;20182;-70
2023/04/06 11:30:07;;;;;;;0.00;0.00;;;;;;;10.40;34.87;96851.41;5036264;28;20240;-71
2023/04/06 11:32:43;;;;;;;0.00;0.00;;;;;;;9.75;35.92;96832.06;5034611;28;20537;-70
2023/04/06 11:35:26;;;;;;;0.00;0.00;;;;;;;9.42;35.39;96839.50;5035228;28;20256;-71
2023/04/06 11:37:52;;;;;;;0.10;0.10;;;;;;;9.44;35.22;96834.84;5034797;28;20179;-70